Data for 11/16/2013

Time Sea-Level Adjusted Pressure Absolute Pressure Temperature Relative Humidity Dew Point   
(mb) (inHg) (mb) (inHg) (C) (F) (%) (C) (F)
00:05 999 29.5 828 24.45 3.3 38 42 -8.3 17
00:10 998 29.47 828 24.45 3.4 38.1 43 -8 17.7
00:15 998 29.47 828 24.45 3.3 37.9 44 -7.8 17.9
00:20 998 29.47 828 24.45 3.2 37.7 44 -7.9 17.8
00:25 998 29.47 828 24.45 3.2 37.7 45 -7.8 18
00:30 998 29.47 828 24.45 3.1 37.6 45 -7.7 18.1
00:35 998 29.47 828 24.45 3 37.5 45 -7.7 18.1
00:40 998 29.47 828 24.45 3 37.4 46 -7.7 18.2
00:45 998 29.47 828 24.45 3 37.4 46 -7.5 18.4
00:50 998 29.47 827 24.42 2.9 37.3 47 -7.3 18.8
00:55 998 29.47 828 24.45 2.9 37.2 47 -7.3 18.8
01:00 998 29.47 828 24.45 2.9 37.2 47 -7.3 18.8
01:05 998 29.47 828 24.45 3 37.4 47 -7.2 19.1
01:10 998 29.47 828 24.45 2.9 37.2 50 -6.7 20
01:15 998 29.47 828 24.45 2.7 36.9 51 -6.5 20.4
01:20 998 29.47 828 24.45 2.6 36.7 55 -5.6 22
01:25 999 29.5 828 24.45 2.3 36.1 65 -3.6 25.5
01:30 999 29.5 828 24.45 1.4 34.6 76 -2.3 27.8
01:35 998 29.47 828 24.45 0.9 33.6 79 -2.3 27.9
01:40 998 29.47 827 24.42 0.8 33.4 79 -2.4 27.7
01:45 998 29.47 827 24.42 0.8 33.5 77 -2.8 27
01:50 998 29.47 827 24.42 0.8 33.4 76 -2.9 26.8
01:55 998 29.47 827 24.42 0.8 33.4 75 -3.1 26.4
02:00 998 29.47 827 24.42 0.9 33.5 77 -2.7 27.1
02:05 998 29.47 827 24.42 0.6 33.1 78 -2.7 27.1
02:10 998 29.47 827 24.42 0.6 33.1 75 -3.4 26
02:15 998 29.47 827 24.42 0.7 33.3 76 -3 26.6
02:20 998 29.47 827 24.42 0.7 33.2 79 -2.5 27.5
02:25 998 29.47 827 24.42 0.5 32.8 79 -2.7 27.2
02:30 998 29.47 827 24.42 0.4 32.7 79 -2.7 27.1
02:35 997 29.44 827 24.42 0.2 32.4 80 -2.7 27.1
02:40 997 29.44 827 24.42 0.2 32.4 80 -2.8 26.9
02:45 997 29.44 827 24.42 0.2 32.3 81 -2.7 27.2
02:50 997 29.44 827 24.42 0.1 32.1 83 -2.5 27.5
02:55 997 29.44 827 24.42 -0 32 85 -2.3 27.9
03:00 997 29.44 827 24.42 -0.1 31.8 86 -2.2 28.1
03:05 997 29.44 827 24.42 -0.3 31.5 87 -2.2 28
03:10 997 29.44 826 24.39 -0.3 31.5 87 -2.2 28.1
03:15 997 29.44 826 24.39 -0.3 31.4 87 -2.2 28.1
03:20 997 29.44 826 24.39 -0.4 31.3 88 -2.2 28.1
03:25 997 29.44 826 24.39 -0.4 31.3 88 -2.1 28.2
03:30 997 29.44 826 24.39 -0.5 31.2 89 -2.1 28.2
03:35 997 29.44 826 24.39 -0.5 31.1 89 -2 28.3
03:40 997 29.44 826 24.39 -0.5 31 90 -2 28.4
03:45 997 29.44 826 24.39 -0.5 31.1 89 -2.1 28.2
03:50 997 29.44 826 24.39 -0.5 31.2 89 -2 28.3
03:55 997 29.44 826 24.39 -0.5 31.2 89 -2 28.4
04:00 997 29.44 826 24.39 -0.5 31.2 89 -2.1 28.3
04:05 997 29.44 826 24.39 -0.4 31.3 88 -2.1 28.1
04:10 997 29.44 826 24.39 -0.3 31.4 88 -2.1 28.2
04:15 997 29.44 826 24.39 -0.2 31.6 87 -2.2 28.1
04:20 997 29.44 826 24.39 -0.1 31.8 87 -2 28.4
04:25 997 29.44 826 24.39 -0.1 31.8 87 -2 28.4
04:30 997 29.44 826 24.39 -0.3 31.5 88 -2 28.4
04:35 997 29.44 826 24.39 -0.4 31.3 89 -1.9 28.5
04:40 997 29.44 826 24.39 -0.4 31.2 90 -1.9 28.7
04:45 997 29.44 826 24.39 -0.5 31.2 91 -1.8 28.7
04:50 997 29.44 826 24.39 -0.5 31.1 91 -1.8 28.8
04:55 997 29.44 826 24.39 -0.5 31.1 92 -1.7 28.9
05:00 997 29.44 826 24.39 -0.6 31 92 -1.7 28.9
05:05 997 29.44 826 24.39 -0.6 31 92 -1.7 28.9
05:10 997 29.44 826 24.39 -0.6 31 92 -1.7 28.9
05:15 997 29.44 826 24.39 -0.6 30.9 93 -1.7 29
05:20 997 29.44 826 24.39 -0.7 30.8 93 -1.7 28.9
05:25 997 29.44 826 24.39 -0.8 30.6 93 -1.8 28.7
05:30 997 29.44 826 24.39 -0.8 30.5 93 -1.8 28.8
05:35 997 29.44 826 24.39 -0.8 30.5 93 -1.8 28.7
05:40 997 29.44 826 24.39 -0.9 30.5 93 -1.8 28.7
05:45 997 29.44 826 24.39 -0.8 30.5 93 -1.8 28.7
05:50 997 29.44 826 24.39 -0.8 30.5 93 -1.8 28.7
05:55 997 29.44 826 24.39 -0.9 30.5 93 -1.9 28.6
06:00 997 29.44 826 24.39 -0.9 30.3 92 -2 28.4
06:05 996 29.41 826 24.39 -0.9 30.3 92 -2.1 28.3
06:10 996 29.41 826 24.39 -0.9 30.3 92 -2.1 28.2
06:15 996 29.41 826 24.39 -0.8 30.5 91 -2.1 28.2
06:20 996 29.41 825 24.36 -0.9 30.3 91 -2.2 28.1
06:25 996 29.41 825 24.36 -1 30.3 91 -2.2 28
06:30 996 29.41 825 24.36 -1 30.2 91 -2.2 28
06:35 996 29.41 825 24.36 -1 30.2 91 -2.3 27.9
06:40 996 29.41 825 24.36 -1 30.2 91 -2.3 27.8
06:45 996 29.41 825 24.36 -1 30.2 90 -2.4 27.7
06:50 996 29.41 825 24.36 -0.9 30.4 90 -2.3 27.8
06:55 996 29.41 825 24.36 -0.8 30.5 89 -2.4 27.7
07:00 996 29.41 825 24.36 -0.8 30.6 89 -2.4 27.7
07:05 996 29.41 825 24.36 -0.8 30.6 90 -2.3 27.9
07:10 996 29.41 825 24.36 -0.9 30.4 90 -2.3 27.8
07:15 996 29.41 825 24.36 -0.8 30.5 90 -2.3 27.9
07:20 996 29.41 825 24.36 -1 30.3 90 -2.4 27.7
07:25 996 29.41 825 24.36 -1 30.3 89 -2.5 27.5
07:30 996 29.41 825 24.36 -0.9 30.4 89 -2.6 27.4
07:35 996 29.41 825 24.36 -0.8 30.5 89 -2.5 27.6
07:40 996 29.41 825 24.36 -0.8 30.5 83 -3.4 25.9
07:45 996 29.41 825 24.36 -0.6 31 84 -2.9 26.7
07:50 996 29.41 825 24.36 -0.6 30.9 85 -2.8 27
07:55 996 29.41 825 24.36 -0.7 30.7 86 -2.8 27
08:00 996 29.41 825 24.36 -0.8 30.5 87 -2.7 27.2
08:05 996 29.41 825 24.36 -1 30.2 88 -2.8 27
08:10 996 29.41 825 24.36 -1 30.1 88 -2.8 27
08:15 996 29.41 825 24.36 -1 30.1 88 -2.7 27.1
08:20 996 29.41 825 24.36 -1.1 30 88 -2.8 26.9
08:25 996 29.41 825 24.36 -1.1 30.1 88 -2.8 26.9
08:30 996 29.41 825 24.36 -1 30.2 87 -2.9 26.8
08:35 996 29.41 825 24.36 -1 30.2 87 -2.9 26.8
08:40 996 29.41 825 24.36 -1 30.2 86 -3 26.7
08:45 996 29.41 825 24.36 -0.9 30.3 86 -3 26.5
08:50 996 29.41 825 24.36 -0.9 30.3 86 -2.9 26.7
08:55 996 29.41 825 24.36 -0.9 30.3 85 -3.1 26.5
09:00 996 29.41 825 24.36 -0.9 30.4 85 -3.2 26.3
09:05 996 29.41 825 24.36 -0.8 30.5 84 -3.2 26.3
09:10 996 29.41 825 24.36 -0.7 30.7 79 -3.8 25.1
09:15 996 29.41 825 24.36 -0.5 31.2 80 -3.5 25.7
09:20 996 29.41 825 24.36 -0.5 31.1 79 -3.7 25.3
09:25 996 29.41 825 24.36 -0.5 31 79 -3.7 25.4
09:30 996 29.41 825 24.36 -0.6 30.9 82 -3.3 26.1
09:35 996 29.41 825 24.36 -0.6 30.9 82 -3.4 25.9
09:40 996 29.41 825 24.36 -0.6 30.9 81 -3.5 25.8
09:45 996 29.41 825 24.36 -0.6 30.9 80 -3.5 25.6
09:50 996 29.41 825 24.36 -0.5 31.1 78 -3.8 25.1
09:55 996 29.41 825 24.36 -0.4 31.3 78 -3.7 25.3
10:00 996 29.41 825 24.36 -0.4 31.3 79 -3.6 25.6
10:05 996 29.41 825 24.36 -0.4 31.3 79 -3.5 25.6
10:10 996 29.41 825 24.36 -0.4 31.3 80 -3.5 25.7
10:15 996 29.41 825 24.36 -0.3 31.5 79 -3.6 25.6
10:20 996 29.41 825 24.36 -0.3 31.5 79 -3.6 25.6
10:25 996 29.41 825 24.36 -0.2 31.7 77 -3.7 25.3
10:30 996 29.41 825 24.36 -0.1 31.8 78 -3.5 25.7
10:35 996 29.41 825 24.36 0.1 32.2 75 -3.8 25.2
10:40 996 29.41 825 24.36 0.2 32.3 73 -4.1 24.6
10:45 996 29.41 825 24.36 0.3 32.5 71 -4.4 24
10:50 996 29.41 825 24.36 0.4 32.8 73 -3.9 24.9
10:55 996 29.41 825 24.36 0.6 33 73 -3.8 25.2
11:00 996 29.41 825 24.36 0.6 33.1 72 -3.8 25.2
11:05 996 29.41 825 24.36 0.6 33.1 71 -4.1 24.6
11:10 996 29.41 825 24.36 0.7 33.3 72 -3.8 25.2
11:15 996 29.41 825 24.36 0.8 33.4 72 -3.6 25.5
11:20 996 29.41 825 24.36 0.7 33.3 71 -4 24.9
11:25 996 29.41 825 24.36 0.7 33.3 71 -4.1 24.7
11:30 996 29.41 825 24.36 0.9 33.6 68 -4.4 24.1
11:35 996 29.41 825 24.36 1 33.8 69 -4 24.9
11:40 996 29.41 825 24.36 1.1 34 69 -4.1 24.7
11:45 996 29.41 825 24.36 1 33.9 68 -4.2 24.4
11:50 996 29.41 825 24.36 1.1 34.1 68 -4.1 24.7
11:55 996 29.41 825 24.36 1.3 34.3 68 -4 24.8
12:00 996 29.41 825 24.36 1.5 34.6 67 -3.9 24.9
12:05 996 29.41 825 24.36 1.5 34.7 67 -4 24.9
12:10 996 29.41 825 24.36 1.5 34.7 67 -4 24.9
12:15 996 29.41 825 24.36 1.5 34.8 67 -4 24.8
12:20 996 29.41 825 24.36 1.7 35 64 -4.4 24
12:25 996 29.41 825 24.36 1.6 34.8 66 -4.1 24.6
12:30 996 29.41 825 24.36 1.8 35.3 64 -4.4 24.1
12:35 996 29.41 825 24.36 2.1 35.8 64 -4.1 24.7
12:40 996 29.41 825 24.36 2.3 36.1 61 -4.5 24
12:45 996 29.41 825 24.36 2.5 36.4 58 -4.9 23.2
12:50 995 29.38 825 24.36 2.9 37.1 56 -5 23
12:55 995 29.38 825 24.36 3.3 37.9 52 -5.8 21.6
13:00 995 29.38 825 24.36 3.6 38.5 52 -5.4 22.2
13:05 995 29.38 825 24.36 3.8 38.8 50 -5.8 21.6
13:10 995 29.38 825 24.36 4 39.1 44 -7.3 18.9
13:15 995 29.38 824 24.33 4 39.2 39 -8.7 16.4
13:20 995 29.38 824 24.33 4.2 39.6 38 -9 15.9
13:25 995 29.38 824 24.33 4.3 39.7 38 -9 15.9
13:30 995 29.38 824 24.33 4.3 39.7 36 -9.5 15
13:35 995 29.38 824 24.33 4.2 39.6 38 -8.8 16.1
13:40 995 29.38 824 24.33 4.2 39.5 39 -8.6 16.6
13:45 995 29.38 824 24.33 4 39.1 41 -8 17.5
13:50 995 29.38 824 24.33 3.7 38.7 42 -8 17.6
13:55 995 29.38 824 24.33 3.5 38.3 44 -7.5 18.4
14:00 995 29.38 824 24.33 3.5 38.2 44 -7.6 18.3
14:05 995 29.38 824 24.33 3.8 38.9 43 -7.7 18.2
14:10 995 29.38 824 24.33 3.9 39 41 -8.1 17.5
14:15 995 29.38 824 24.33 3.8 38.8 43 -7.8 18
14:20 995 29.38 824 24.33 3.7 38.6 45 -7.2 19.1
14:25 995 29.38 824 24.33 3.8 38.8 44 -7.3 18.9
14:30 995 29.38 824 24.33 3.9 39.1 44 -7.2 19
14:35 995 29.38 824 24.33 4.2 39.6 44 -6.9 19.6
14:40 995 29.38 824 24.33 3.9 39.1 45 -6.9 19.5
14:45 995 29.38 824 24.33 3.7 38.7 46 -7 19.4
14:50 995 29.38 824 24.33 3.7 38.6 46 -6.8 19.7
14:55 995 29.38 824 24.33 3.6 38.5 47 -6.6 20.1
15:00 995 29.38 824 24.33 3.5 38.3 47 -6.9 19.7
15:05 995 29.38 824 24.33 3.4 38.2 48 -6.7 20
15:10 995 29.38 824 24.33 3.3 37.9 46 -7.2 19
15:15 995 29.38 824 24.33 3.1 37.5 49 -6.6 20.1
15:20 995 29.38 824 24.33 2.9 37.2 49 -6.7 19.9
15:25 995 29.38 824 24.33 2.6 36.6 69 -2.5 27.4
15:30 996 29.41 825 24.36 0.2 32.3 83 -2.3 27.8
15:35 996 29.41 825 24.36 -1 30.2 89 -2.6 27.3
15:40 996 29.41 825 24.36 -1.4 29.5 90 -2.8 26.9
15:45 996 29.41 825 24.36 -1.5 29.3 89 -3 26.5
15:50 996 29.41 825 24.36 -1.4 29.5 88 -3.1 26.4
15:55 996 29.41 825 24.36 -1.4 29.6 89 -2.9 26.8
16:00 996 29.41 826 24.39 -1.3 29.6 90 -2.8 27
16:05 997 29.44 826 24.39 -1.3 29.6 90 -2.7 27.1
16:10 997 29.44 826 24.39 -1.3 29.6 91 -2.6 27.3
16:15 997 29.44 826 24.39 -1.3 29.6 92 -2.5 27.5
16:20 997 29.44 826 24.39 -1.3 29.6 92 -2.4 27.6
16:25 997 29.44 826 24.39 -1.4 29.6 91 -2.6 27.3
16:30 997 29.44 826 24.39 -1.7 29 91 -2.9 26.8
16:35 997 29.44 826 24.39 -1.7 29 92 -2.9 26.8
16:40 997 29.44 826 24.39 -1.7 28.9 91 -2.9 26.7
16:45 997 29.44 827 24.42 -1.7 29 89 -3.2 26.2
16:50 998 29.47 827 24.42 -1.7 28.9 88 -3.5 25.7
16:55 998 29.47 827 24.42 -1.5 29.3 86 -3.5 25.6
17:00 998 29.47 827 24.42 -1.3 29.6 84 -3.7 25.3
17:05 997 29.44 827 24.42 -1.2 29.9 78 -4.5 24
17:10 997 29.44 827 24.42 -1 30.3 81 -3.9 25
17:15 998 29.47 827 24.42 -1.3 29.7 84 -3.7 25.3
17:20 998 29.47 827 24.42 -1.4 29.5 82 -4 24.8
17:25 998 29.47 827 24.42 -1.4 29.5 81 -4.3 24.3
17:30 998 29.47 827 24.42 -1.2 29.8 81 -4.1 24.6
17:35 997 29.44 827 24.42 -1.2 29.9 79 -4.3 24.2
17:40 998 29.47 827 24.42 -1.2 29.9 75 -5 23
17:45 998 29.47 827 24.42 -1.1 30.1 78 -4.4 24.1
17:50 998 29.47 827 24.42 -1.3 29.6 80 -4.3 24.2
17:55 998 29.47 827 24.42 -1.3 29.6 77 -4.8 23.3
18:00 998 29.47 827 24.42 -1.2 29.9 77 -4.7 23.5
18:05 998 29.47 827 24.42 -1.1 30 76 -4.8 23.4
18:10 998 29.47 827 24.42 -1 30.1 71 -5.6 22
18:15 998 29.47 827 24.42 -0.7 30.7 69 -5.7 21.8
18:20 998 29.47 827 24.42 -0.8 30.7 70 -5.6 22
18:25 998 29.47 827 24.42 -0.8 30.6 67 -6.1 21
18:30 998 29.47 827 24.42 -0.6 30.9 64 -6.6 20
18:35 998 29.47 828 24.45 -0.3 31.5 63 -6.5 20.3
18:40 998 29.47 828 24.45 -0.3 31.5 62 -6.6 20.1
18:45 999 29.5 828 24.45 -0.2 31.7 61 -6.8 19.7
18:50 999 29.5 828 24.45 -0.1 31.8 61 -6.8 19.7
18:55 999 29.5 828 24.45 -0.1 31.8 60 -7 19.5
19:00 999 29.5 828 24.45 -0.1 31.8 61 -6.8 19.8
19:05 999 29.5 828 24.45 -0.1 31.9 58 -7.2 19
19:10 999 29.5 828 24.45 0.1 32.1 59 -7 19.4
19:15 999 29.5 829 24.48 0.1 32.2 62 -6.3 20.6
19:20 999 29.5 829 24.48 0 32 66 -5.7 21.8
19:25 1000 29.53 829 24.48 -0.3 31.5 68 -5.5 22.2
19:30 1000 29.53 829 24.48 -0.4 31.2 69 -5.4 22.3
19:35 1000 29.53 829 24.48 -0.5 31 70 -5.4 22.2
19:40 1000 29.53 829 24.48 -0.6 30.8 70 -5.4 22.3
19:45 1000 29.53 829 24.48 -0.7 30.7 70 -5.5 22
19:50 1000 29.53 829 24.48 -0.8 30.6 65 -6.5 20.3
19:55 1000 29.53 829 24.48 -0.8 30.5 61 -7.3 18.8
20:00 1000 29.53 829 24.48 -1 30.3 63 -7.2 19
20:05 1000 29.53 829 24.48 -1 30.1 64 -7.1 19.3
20:10 1000 29.53 829 24.48 -1.1 30.1 63 -7.2 19
20:15 1000 29.53 829 24.48 -1.1 30.1 62 -7.4 18.8
20:20 1000 29.53 829 24.48 -1.1 29.9 63 -7.3 18.9
20:25 1000 29.53 829 24.48 -1.2 29.8 63 -7.4 18.7
20:30 1000 29.53 829 24.48 -1.4 29.6 63 -7.4 18.6
20:35 1000 29.53 830 24.51 -1.5 29.3 64 -7.4 18.7
20:40 1000 29.53 830 24.51 -1.6 29.1 65 -7.4 18.8
20:45 1001 29.56 830 24.51 -1.7 29 64 -7.6 18.3
20:50 1001 29.56 830 24.51 -1.7 28.9 64 -7.5 18.4
20:55 1001 29.56 830 24.51 -1.7 28.9 63 -7.9 17.8
21:00 1001 29.56 830 24.51 -1.8 28.9 64 -7.7 18.1
21:05 1001 29.56 830 24.51 -1.8 28.7 62 -8.2 17.2
21:10 1001 29.56 830 24.51 -1.9 28.7 60 -8.6 16.5
21:15 1001 29.56 830 24.51 -1.8 28.7 58 -9 15.8
21:20 1001 29.56 830 24.51 -1.7 28.9 59 -8.8 16.2
21:25 1001 29.56 830 24.51 -1.8 28.7 58 -9 15.8
21:30 1001 29.56 831 24.54 -1.9 28.7 57 -9.3 15.2
21:35 1001 29.56 831 24.54 -1.9 28.7 57 -9.2 15.5
21:40 1002 29.59 831 24.54 -1.8 28.7 57 -9.2 15.4
21:45 1002 29.59 831 24.54 -1.8 28.7 57 -9.3 15.2
21:50 1002 29.59 831 24.54 -1.9 28.6 56 -9.5 14.8
21:55 1002 29.59 831 24.54 -1.8 28.8 56 -9.5 15
22:00 1002 29.59 831 24.54 -1.6 29.1 55 -9.6 14.7
22:05 1002 29.59 831 24.54 -1.5 29.3 56 -9.2 15.4
22:10 1002 29.59 831 24.54 -1.4 29.4 56 -9 15.8
22:15 1002 29.59 831 24.54 -1.5 29.4 55 -9.3 15.2
22:20 1002 29.59 831 24.54 -1.5 29.3 56 -9.2 15.4
22:25 1002 29.59 831 24.54 -1.5 29.2 56 -9.3 15.2
22:30 1002 29.59 831 24.54 -1.5 29.3 55 -9.4 15.1
22:35 1002 29.59 832 24.57 -1.5 29.4 53 -9.8 14.4
22:40 1002 29.59 832 24.57 -1.4 29.4 53 -9.7 14.5
22:45 1003 29.62 832 24.57 -1.5 29.4 53 -9.9 14.1
22:50 1003 29.62 832 24.57 -1.4 29.5 53 -9.9 14.3
22:55 1003 29.62 832 24.57 -1.4 29.5 54 -9.6 14.7
23:00 1003 29.62 832 24.57 -1.5 29.3 54 -9.5 14.8
23:05 1003 29.62 832 24.57 -1.6 29.2 55 -9.4 15.1
23:10 1003 29.62 832 24.57 -1.5 29.2 55 -9.5 14.9
23:15 1003 29.62 832 24.57 -1.5 29.3 55 -9.3 15.2
23:20 1003 29.62 832 24.57 -1.4 29.4 55 -9.3 15.2
23:25 1003 29.62 832 24.57 -1.1 30 51 -9.9 14.2
23:30 1003 29.62 832 24.57 -0.9 30.3 52 -9.5 14.9
23:35 1003 29.62 832 24.57 -0.9 30.3 52 -9.6 14.8
23:40 1003 29.62 833 24.6 -0.8 30.5 51 -9.9 14.2
23:45 1003 29.62 833 24.6 -0.7 30.7 48 -10.4 13.2
23:50 1003 29.62 833 24.6 -0.6 30.9 48 -10.3 13.4
23:55 1004 29.65 833 24.6 -0.5 31 45 -11.2 11.9
24:00 1004 29.65 833 24.6 -0.4 31.2 47 -10.4 13.2